Time;durP1;ratioP1;P1;durP2;ratioP2;P2;SDS_P1;SDS_P2;PMS_P1;PMS_P2;Temp;Humidity;BMP_temperature;BMP_pressure;BME280_temperature;BME280_humidity;BME280_pressure;Samples;Min_cycle;Max_cycle;Signal;HPM_P1;HPM_P2
2020/12/12 00:01:42;;;;;;;28.47;13.93;;;4.30;99.90;;;;;;4396621;32;20461;-74
2020/12/12 00:04:09;;;;;;;29.93;13.73;;;4.30;99.90;;;;;;4396422;32;20165;-76
2020/12/12 00:06:35;;;;;;;27.13;13.53;;;4.20;99.90;;;;;;4397291;32;20458;-75
2020/12/12 00:09:03;;;;;;;26.33;13.60;;;4.30;99.90;;;;;;4396033;32;20164;-75
2020/12/12 00:11:29;;;;;;;31.20;14.23;;;4.30;99.90;;;;;;4396819;32;20206;-74
2020/12/12 00:13:55;;;;;;;32.30;14.33;;;4.30;99.90;;;;;;4381136;32;20209;-75
2020/12/12 00:16:22;;;;;;;31.00;13.87;;;4.40;99.90;;;;;;4380486;32;20137;-74
2020/12/12 00:18:48;;;;;;;30.67;14.77;;;4.40;99.90;;;;;;4380550;32;20152;-75
2020/12/12 00:21:21;;;;;;;27.30;12.57;;;4.40;99.90;;;;;;4382467;32;20438;-75
2020/12/12 00:23:48;;;;;;;31.73;14.07;;;4.30;99.90;;;;;;4382600;32;20163;-74
2020/12/12 00:26:19;;;;;;;30.27;13.90;;;4.40;99.90;;;;;;4382843;32;20424;-74
2020/12/12 00:28:46;;;;;;;29.87;13.67;;;4.40;99.90;;;;;;4381279;32;20148;-74
2020/12/12 00:31:15;;;;;;;33.80;14.20;;;4.30;99.90;;;;;;4381455;32;20155;-73
2020/12/12 00:33:42;;;;;;;30.67;14.17;;;4.40;99.90;;;;;;4382910;32;20144;-74
2020/12/12 00:36:09;;;;;;;30.20;13.43;;;4.30;99.90;;;;;;4367774;32;20489;-74
2020/12/12 00:38:35;;;;;;;31.73;13.90;;;4.30;99.90;;;;;;4382539;32;20170;-74
2020/12/12 00:41:02;;;;;;;28.23;13.53;;;4.30;99.90;;;;;;4382437;32;20223;-74
2020/12/12 00:43:29;;;;;;;30.23;13.50;;;4.30;99.90;;;;;;4381036;32;20162;-74
2020/12/12 00:45:55;;;;;;;31.73;13.73;;;4.40;99.90;;;;;;4380825;32;20386;-74
2020/12/12 00:48:22;;;;;;;27.93;12.63;;;4.40;99.90;;;;;;4380897;32;20168;-74
2020/12/12 00:50:48;;;;;;;27.27;12.70;;;4.40;99.90;;;;;;4382237;32;20186;-73
2020/12/12 00:53:15;;;;;;;27.70;12.93;;;4.40;99.90;;;;;;4380420;32;20243;-74
2020/12/12 00:55:42;;;;;;;25.93;12.43;;;4.30;99.90;;;;;;4380661;32;20224;-74
2020/12/12 00:58:08;;;;;;;22.70;11.50;;;4.30;99.90;;;;;;4382280;32;20396;-74
2020/12/12 01:00:35;;;;;;;25.53;12.07;;;4.30;99.90;;;;;;4380341;32;20212;-74
2020/12/12 01:03:02;;;;;;;26.10;12.07;;;4.30;99.90;;;;;;4382252;32;20148;-74
2020/12/12 01:05:33;;;;;;;23.00;11.63;;;4.30;99.90;;;;;;4382111;32;20208;-73
2020/12/12 01:08:00;;;;;;;21.90;11.30;;;4.30;99.90;;;;;;4380727;32;20449;-74
2020/12/12 01:10:28;;;;;;;21.53;11.67;;;4.30;99.90;;;;;;4380581;32;20151;-74
2020/12/12 01:12:55;;;;;;;23.53;11.00;;;4.40;99.90;;;;;;4380627;32;20520;-73
2020/12/12 01:15:22;;;;;;;25.03;11.63;;;4.30;99.90;;;;;;4380579;32;20170;-74
2020/12/12 01:17:49;;;;;;;25.03;11.53;;;4.30;99.90;;;;;;4380515;32;20152;-72
2020/12/12 01:20:16;;;;;;;25.97;11.57;;;4.30;99.90;;;;;;4380600;32;20399;-72
2020/12/12 01:22:43;;;;;;;27.40;11.90;;;4.30;99.90;;;;;;4381618;32;20486;-71
2020/12/12 01:25:09;;;;;;;23.80;11.37;;;4.30;99.90;;;;;;4380466;32;20462;-72
2020/12/12 01:27:36;;;;;;;23.20;12.17;;;4.30;99.90;;;;;;4380457;32;20458;-72
2020/12/12 01:30:04;;;;;;;27.57;12.40;;;4.30;99.90;;;;;;4380576;32;20500;-72
2020/12/12 01:32:30;;;;;;;27.33;12.97;;;4.20;99.90;;;;;;4380390;32;20158;-71
2020/12/12 01:34:57;;;;;;;26.73;13.10;;;4.20;99.90;;;;;;4379812;32;20390;-72
2020/12/12 01:37:23;;;;;;;29.83;12.70;;;4.20;99.90;;;;;;4380286;32;20153;-72
2020/12/12 01:39:50;;;;;;;24.07;12.77;;;4.20;99.90;;;;;;4381900;32;20502;-72
2020/12/12 01:42:16;;;;;;;28.07;13.27;;;4.10;99.90;;;;;;4381641;32;20190;-72
2020/12/12 01:44:43;;;;;;;30.20;13.30;;;4.10;99.90;;;;;;4379579;32;20144;-72
2020/12/12 01:47:09;;;;;;;29.67;14.37;;;4.10;99.90;;;;;;4380129;32;20141;-73
2020/12/12 01:49:36;;;;;;;27.13;13.20;;;4.10;99.90;;;;;;4380113;32;20384;-73
2020/12/12 01:52:05;;;;;;;26.13;12.83;;;4.10;99.90;;;;;;4379872;32;20386;-73
2020/12/12 01:54:34;;;;;;;30.73;14.30;;;4.10;99.90;;;;;;4381766;32;20140;-73
2020/12/12 01:57:03;;;;;;;26.83;12.77;;;4.10;99.90;;;;;;4379995;32;20423;-73
2020/12/12 01:59:30;;;;;;;28.40;13.80;;;4.10;99.90;;;;;;4379352;32;20152;-73
2020/12/12 02:01:58;;;;;;;25.07;13.40;;;4.00;99.90;;;;;;4381042;32;20441;-74
2020/12/12 02:04:25;;;;;;;26.70;13.67;;;4.10;99.90;;;;;;4381154;32;20194;-74
2020/12/12 02:06:52;;;;;;;30.00;14.00;;;4.00;99.90;;;;;;4379854;32;20186;-73
2020/12/12 02:09:20;;;;;;;29.87;14.63;;;4.10;99.90;;;;;;4379792;32;20148;-73
2020/12/12 02:11:48;;;;;;;31.13;14.40;;;4.00;99.90;;;;;;4379739;32;20195;-72
2020/12/12 02:14:15;;;;;;;30.60;14.13;;;3.90;99.90;;;;;;4379611;32;20191;-72
2020/12/12 02:17:10;;;;;;;33.47;15.23;;;3.90;99.90;;;;;;4379686;32;20144;-73
2020/12/12 02:19:37;;;;;;;32.13;15.40;;;4.00;99.90;;;;;;4304134;33;20153;-72
2020/12/12 02:22:05;;;;;;;32.03;14.77;;;4.00;99.90;;;;;;4303768;33;20142;-73
2020/12/12 02:24:33;;;;;;;30.73;15.20;;;3.90;99.90;;;;;;4303985;33;20174;-72
2020/12/12 02:27:05;;;;;;;33.03;15.30;;;3.90;99.90;;;;;;4303149;33;20184;-72
2020/12/12 02:29:52;;;;;;;32.77;15.23;;;3.90;99.90;;;;;;4303468;33;20157;-72
2020/12/12 02:32:18;;;;;;;36.40;15.93;;;3.90;99.90;;;;;;4309824;33;20183;-71
2020/12/12 02:34:45;;;;;;;34.80;15.60;;;3.90;99.90;;;;;;4305090;33;20236;-72
2020/12/12 02:37:12;;;;;;;36.73;16.40;;;3.90;99.90;;;;;;4303779;33;20157;-72
2020/12/12 02:39:38;;;;;;;39.43;16.80;;;3.90;99.90;;;;;;4315598;33;20504;-72
2020/12/12 02:42:05;;;;;;;41.90;17.47;;;3.90;99.90;;;;;;4319168;33;20207;-72
2020/12/12 02:44:31;;;;;;;38.47;17.00;;;3.90;99.90;;;;;;4317986;33;20187;-73
2020/12/12 02:46:58;;;;;;;42.87;18.47;;;3.90;99.90;;;;;;4309876;33;20233;-73
2020/12/12 02:49:24;;;;;;;42.10;18.53;;;3.90;99.90;;;;;;4303529;33;20207;-73
2020/12/12 02:51:51;;;;;;;45.80;17.93;;;3.80;99.90;;;;;;4303249;33;20229;-73
2020/12/12 02:54:17;;;;;;;42.93;17.90;;;3.80;99.90;;;;;;4303575;33;20180;-73
2020/12/12 02:56:44;;;;;;;45.60;18.73;;;3.90;99.90;;;;;;4363567;32;20462;-72
2020/12/12 02:59:11;;;;;;;43.60;18.17;;;3.80;99.90;;;;;;4379129;32;20135;-72
2020/12/12 03:01:41;;;;;;;48.10;18.93;;;3.80;99.90;;;;;;4379096;32;20201;-73
2020/12/12 03:04:08;;;;;;;49.63;19.63;;;3.70;99.90;;;;;;4379761;32;20163;-72
2020/12/12 03:06:36;;;;;;;45.50;19.00;;;3.80;99.90;;;;;;4379125;32;20581;-71
2020/12/12 03:09:04;;;;;;;47.77;20.10;;;3.80;99.90;;;;;;4379177;32;20143;-72
2020/12/12 03:11:30;;;;;;;46.93;18.60;;;3.70;99.90;;;;;;4378986;32;20473;-72
2020/12/12 03:13:56;;;;;;;44.43;18.40;;;3.80;99.90;;;;;;4378890;32;20160;-72
2020/12/12 03:16:23;;;;;;;49.33;19.17;;;3.80;99.90;;;;;;4378251;32;20144;-71
2020/12/12 03:18:50;;;;;;;47.73;18.67;;;3.70;99.90;;;;;;4378847;32;20182;-72
2020/12/12 03:21:16;;;;;;;40.73;18.27;;;3.80;99.90;;;;;;4378964;32;20136;-72
2020/12/12 03:23:42;;;;;;;41.50;18.17;;;3.70;99.90;;;;;;4378923;32;20163;-72
2020/12/12 03:26:09;;;;;;;42.03;17.73;;;3.70;99.90;;;;;;4378872;32;20422;-72
2020/12/12 03:28:35;;;;;;;46.07;17.90;;;3.70;99.90;;;;;;4378924;32;20442;-73
2020/12/12 03:31:02;;;;;;;40.13;17.73;;;3.70;99.90;;;;;;4378761;32;20171;-73
2020/12/12 03:33:29;;;;;;;40.43;16.80;;;3.80;99.90;;;;;;4378951;32;20470;-73
2020/12/12 03:35:55;;;;;;;39.07;17.40;;;3.70;99.90;;;;;;4378354;32;20213;-72
2020/12/12 03:38:21;;;;;;;38.53;17.03;;;3.70;99.90;;;;;;4379044;32;20140;-72
2020/12/12 03:40:48;;;;;;;39.80;17.83;;;3.80;99.90;;;;;;4380525;32;20139;-72
2020/12/12 03:43:14;;;;;;;39.20;16.90;;;3.70;99.90;;;;;;4378745;32;20186;-73
2020/12/12 03:45:40;;;;;;;36.97;16.47;;;3.60;99.90;;;;;;4380298;32;20382;-72
2020/12/12 03:48:07;;;;;;;38.57;17.27;;;3.60;99.90;;;;;;4380240;32;20189;-72
2020/12/12 03:50:33;;;;;;;37.37;16.63;;;3.60;99.90;;;;;;4378681;32;20156;-72
2020/12/12 03:52:59;;;;;;;38.27;16.47;;;3.70;99.90;;;;;;4380253;32;20143;-72
2020/12/12 03:55:26;;;;;;;38.70;16.70;;;3.70;99.90;;;;;;4378761;32;20470;-73
2020/12/12 03:57:52;;;;;;;38.60;16.57;;;3.70;99.90;;;;;;4378631;32;20140;-73
2020/12/12 04:00:19;;;;;;;36.33;16.07;;;3.70;99.90;;;;;;4380180;32;20156;-73
2020/12/12 04:02:45;;;;;;;38.00;15.93;;;3.70;99.90;;;;;;4378710;32;20421;-73
2020/12/12 04:05:12;;;;;;;37.40;16.27;;;3.70;99.90;;;;;;4380389;32;20140;-74
2020/12/12 04:07:39;;;;;;;32.40;15.27;;;3.70;99.90;;;;;;4378659;32;20144;-74
2020/12/12 04:10:05;;;;;;;33.97;15.27;;;3.70;99.90;;;;;;4380500;32;20255;-75
2020/12/12 04:12:32;;;;;;;37.77;16.67;;;3.70;99.90;;;;;;4378446;32;20203;-74
2020/12/12 04:14:58;;;;;;;36.70;16.50;;;3.70;99.90;;;;;;4378620;32;20235;-74
2020/12/12 04:17:25;;;;;;;34.17;15.67;;;3.70;99.90;;;;;;4379968;32;20175;-73
2020/12/12 04:19:51;;;;;;;35.33;16.57;;;3.70;99.90;;;;;;4379941;32;20167;-73
2020/12/12 04:22:18;;;;;;;40.60;16.50;;;3.60;99.90;;;;;;4380280;32;20144;-73
2020/12/12 04:24:44;;;;;;;38.40;17.00;;;3.60;99.90;;;;;;4381188;32;20142;-73
2020/12/12 04:27:11;;;;;;;36.53;15.63;;;3.70;99.90;;;;;;4382703;32;20186;-73
2020/12/12 04:29:37;;;;;;;40.73;17.03;;;3.60;99.90;;;;;;4382700;32;20166;-74
2020/12/12 04:32:04;;;;;;;45.50;16.73;;;3.50;99.90;;;;;;4381062;32;20202;-74
2020/12/12 04:34:31;;;;;;;39.33;16.83;;;3.50;99.90;;;;;;4382651;32;20148;-74
2020/12/12 04:36:58;;;;;;;39.17;16.77;;;3.60;99.90;;;;;;4382398;32;20473;-74
2020/12/12 04:39:24;;;;;;;38.33;16.47;;;3.60;99.90;;;;;;4381090;32;20499;-74
2020/12/12 04:41:52;;;;;;;38.67;17.17;;;3.50;99.90;;;;;;4381087;32;20186;-74
2020/12/12 04:44:18;;;;;;;41.23;16.60;;;3.50;99.90;;;;;;4381053;32;20187;-74
2020/12/12 04:46:45;;;;;;;41.30;17.37;;;3.40;99.90;;;;;;4381105;32;20225;-75
2020/12/12 04:49:12;;;;;;;37.43;16.43;;;3.40;99.90;;;;;;4380948;32;20144;-73
2020/12/12 04:51:39;;;;;;;43.77;17.23;;;3.40;99.90;;;;;;4382837;32;20143;-74
2020/12/12 04:54:08;;;;;;;43.57;17.03;;;3.30;99.90;;;;;;4380974;32;20145;-74
2020/12/12 04:56:36;;;;;;;41.20;17.90;;;3.40;99.90;;;;;;4382317;32;20167;-73
2020/12/12 04:59:04;;;;;;;43.60;17.13;;;3.40;99.90;;;;;;4380790;32;20179;-73
2020/12/12 05:01:32;;;;;;;41.27;17.93;;;3.40;99.90;;;;;;4380824;32;20140;-74
2020/12/12 05:04:02;;;;;;;45.90;17.93;;;3.30;99.90;;;;;;4380762;32;20402;-74
2020/12/12 05:06:30;;;;;;;46.93;18.07;;;3.30;99.90;;;;;;4382180;32;20162;-73
2020/12/12 05:08:57;;;;;;;44.63;17.93;;;3.20;99.90;;;;;;4382081;32;20145;-73
2020/12/12 05:11:24;;;;;;;48.70;18.50;;;3.20;99.90;;;;;;4380633;32;20171;-73
2020/12/12 05:13:51;;;;;;;44.60;18.27;;;3.30;99.90;;;;;;4380497;32;20198;-73
2020/12/12 05:16:18;;;;;;;43.67;18.07;;;3.30;99.90;;;;;;4379949;32;20143;-74
2020/12/12 05:18:45;;;;;;;45.60;17.63;;;3.30;99.90;;;;;;4380649;32;20187;-75
2020/12/12 05:21:12;;;;;;;45.60;19.00;;;3.20;99.90;;;;;;4380492;32;20163;-73
2020/12/12 05:23:39;;;;;;;46.20;17.67;;;3.20;99.90;;;;;;4380453;32;20145;-73
2020/12/12 05:26:06;;;;;;;43.30;17.70;;;3.10;99.90;;;;;;4380579;32;20516;-73
2020/12/12 05:28:32;;;;;;;49.50;17.70;;;3.10;99.90;;;;;;4380487;32;20144;-73
2020/12/12 05:30:59;;;;;;;42.23;17.33;;;3.00;99.90;;;;;;4381843;32;20151;-73
2020/12/12 05:33:26;;;;;;;47.23;17.43;;;3.00;99.90;;;;;;4380759;32;20191;-73
2020/12/12 05:35:54;;;;;;;43.70;18.50;;;2.90;99.90;;;;;;4387814;32;20477;-74
2020/12/12 05:38:21;;;;;;;43.43;17.87;;;2.90;99.90;;;;;;4380511;32;20143;-74
2020/12/12 05:40:53;;;;;;;46.40;17.80;;;2.90;99.90;;;;;;4387170;32;20220;-74
2020/12/12 05:43:19;;;;;;;42.83;17.27;;;2.90;99.90;;;;;;4395341;32;20211;-74
2020/12/12 05:45:46;;;;;;;46.60;18.03;;;2.90;99.90;;;;;;4394964;32;20173;-74
2020/12/12 05:48:13;;;;;;;47.13;17.70;;;2.80;99.90;;;;;;4390745;32;20186;-74
2020/12/12 05:50:39;;;;;;;47.97;18.73;;;2.80;99.90;;;;;;4380108;32;20220;-74
2020/12/12 05:53:06;;;;;;;45.20;18.00;;;2.70;99.90;;;;;;4380405;32;20185;-73
2020/12/12 05:55:35;;;;;;;47.63;18.87;;;2.80;99.90;;;;;;4381777;32;20306;-73
2020/12/12 05:58:02;;;;;;;45.83;18.10;;;2.70;99.90;;;;;;4380004;32;20155;-73
2020/12/12 06:00:30;;;;;;;47.20;18.03;;;2.70;99.90;;;;;;4379913;32;20148;-73
2020/12/12 06:03:04;;;;;;;45.83;18.40;;;2.80;99.90;;;;;;4380031;32;20148;-73
2020/12/12 06:05:33;;;;;;;43.83;18.30;;;2.70;99.90;;;;;;4379982;32;20538;-73
2020/12/12 06:08:04;;;;;;;46.63;17.80;;;2.70;99.90;;;;;;4381316;32;20155;-73
2020/12/12 06:10:32;;;;;;;42.40;17.60;;;2.60;99.90;;;;;;4380126;32;20148;-73
2020/12/12 06:13:02;;;;;;;44.27;18.07;;;2.60;99.90;;;;;;4379700;32;20183;-73
2020/12/12 06:15:37;;;;;;;41.27;17.13;;;2.60;99.90;;;;;;4379859;32;20132;-74
2020/12/12 06:18:20;;;;;;;42.90;17.90;;;2.60;99.90;;;;;;4379909;32;20226;-74
2020/12/12 06:20:50;;;;;;;43.00;17.00;;;2.60;99.90;;;;;;4371340;32;20190;-73
2020/12/12 06:23:17;;;;;;;42.27;16.73;;;2.60;99.90;;;;;;4392354;32;20178;-73
2020/12/12 06:25:44;;;;;;;40.67;17.07;;;2.60;99.90;;;;;;4376337;32;20155;-72
2020/12/12 06:28:18;;;;;;;37.50;15.80;;;2.70;99.90;;;;;;4375282;32;20148;-72
2020/12/12 06:30:45;;;;;;;37.57;15.07;;;2.70;99.90;;;;;;4384911;32;20478;-72
2020/12/12 06:33:11;;;;;;;33.37;14.37;;;2.60;99.90;;;;;;4393133;32;20155;-73
2020/12/12 06:35:48;;;;;;;34.60;14.90;;;2.60;99.90;;;;;;4385994;32;20171;-73
2020/12/12 06:38:26;;;;;;;30.93;13.80;;;2.60;99.90;;;;;;4387182;32;20171;-72
2020/12/12 06:40:59;;;;;;;31.93;14.27;;;2.50;99.90;;;;;;4391316;32;20238;-73
2020/12/12 06:43:35;;;;;;;31.60;13.87;;;2.50;99.90;;;;;;4367235;32;20234;-73
2020/12/12 06:46:06;;;;;;;28.10;13.33;;;2.50;99.90;;;;;;4372666;32;20209;-73
2020/12/12 06:48:34;;;;;;;30.10;13.50;;;2.60;99.90;;;;;;4373699;32;20214;-73
2020/12/12 06:51:02;;;;;;;31.97;14.30;;;2.60;99.90;;;;;;4378738;32;20163;-74
2020/12/12 06:53:31;;;;;;;33.23;14.40;;;2.60;99.90;;;;;;4366609;32;20155;-74
2020/12/12 06:56:11;;;;;;;30.90;13.77;;;2.60;99.90;;;;;;4378846;32;20190;-73
2020/12/12 06:58:38;;;;;;;27.20;13.20;;;2.60;99.90;;;;;;4368724;32;20160;-73
2020/12/12 07:01:29;;;;;;;30.07;13.70;;;2.60;99.90;;;;;;4378419;32;20190;-73
2020/12/12 07:03:57;;;;;;;22.93;11.73;;;2.60;99.90;;;;;;4373046;32;20149;-72
2020/12/12 07:06:31;;;;;;;26.13;12.27;;;2.60;99.90;;;;;;4371683;32;20183;-72
2020/12/12 07:09:04;;;;;;;24.63;11.37;;;2.60;99.90;;;;;;4378681;32;20151;-72
2020/12/12 07:11:34;;;;;;;22.70;10.93;;;2.50;99.90;;;;;;4368336;32;20164;-72
2020/12/12 07:14:01;;;;;;;20.90;10.10;;;2.50;99.90;;;;;;4372414;32;20160;-73
2020/12/12 07:16:29;;;;;;;22.27;10.77;;;2.40;99.90;;;;;;4374542;32;20154;-72
2020/12/12 07:18:56;;;;;;;20.27;10.67;;;2.40;99.90;;;;;;4378851;32;20147;-72
2020/12/12 07:21:23;;;;;;;22.07;10.10;;;2.50;99.90;;;;;;4367022;32;20141;-74
2020/12/12 07:23:50;;;;;;;19.67;9.73;;;2.50;99.90;;;;;;4378761;32;20174;-72
2020/12/12 07:26:16;;;;;;;22.70;10.70;;;2.40;99.90;;;;;;4370835;32;20206;-72
2020/12/12 07:28:43;;;;;;;19.03;9.73;;;2.40;99.90;;;;;;4362605;33;20176;-73
2020/12/12 07:31:10;;;;;;;20.37;10.20;;;2.50;99.90;;;;;;4362329;33;20172;-71
2020/12/12 07:33:38;;;;;;;20.17;9.47;;;2.50;99.90;;;;;;4362734;33;20202;-72
2020/12/12 07:36:04;;;;;;;18.30;8.87;;;2.50;99.90;;;;;;4363311;33;20186;-71
2020/12/12 07:38:38;;;;;;;19.37;9.07;;;2.50;99.90;;;;;;4363932;33;20425;-72
2020/12/12 07:41:13;;;;;;;17.07;8.87;;;2.50;99.90;;;;;;4363451;33;20524;-72
2020/12/12 07:43:53;;;;;;;18.40;9.60;;;2.50;99.90;;;;;;4365674;33;20185;-72
2020/12/12 07:46:20;;;;;;;18.67;9.70;;;2.50;99.90;;;;;;4363666;33;20161;-72
2020/12/12 07:48:59;;;;;;;18.97;9.77;;;2.50;99.90;;;;;;4363628;33;20149;-73
2020/12/12 07:51:26;;;;;;;17.23;9.27;;;2.50;99.90;;;;;;4358723;33;20168;-72
2020/12/12 07:53:52;;;;;;;17.97;8.73;;;2.60;99.90;;;;;;4363309;33;20191;-73
2020/12/12 07:56:21;;;;;;;18.10;9.47;;;2.60;99.90;;;;;;4364411;32;20144;-74
2020/12/12 07:59:02;;;;;;;18.50;9.03;;;2.60;99.90;;;;;;4367620;32;20182;-73
2020/12/12 08:01:29;;;;;;;16.57;8.97;;;2.50;99.90;;;;;;4368042;32;20190;-73
2020/12/12 08:03:55;;;;;;;19.10;9.53;;;2.50;99.90;;;;;;4366556;32;20308;-73
2020/12/12 08:06:26;;;;;;;21.20;10.07;;;2.50;99.90;;;;;;4366666;32;20447;-74
2020/12/12 08:08:56;;;;;;;16.90;9.17;;;2.50;99.90;;;;;;4367728;32;20190;-74
2020/12/12 08:11:23;;;;;;;18.00;8.80;;;2.50;99.90;;;;;;4367641;32;20148;-73
2020/12/12 08:13:50;;;;;;;18.60;9.40;;;2.50;99.90;;;;;;4366296;32;20491;-74
2020/12/12 08:18:45;;;;;;;16.50;8.77;;;2.50;99.90;;;;;;4366508;32;20195;-75
2020/12/12 08:21:14;;;;;;;17.33;9.20;;;2.50;99.90;;;;;;4367738;32;20159;-72
2020/12/12 08:23:41;;;;;;;15.07;8.80;;;2.50;99.90;;;;;;4367788;32;20403;-74
2020/12/12 08:26:12;;;;;;;16.23;9.03;;;2.50;99.90;;;;;;4366175;32;20143;-74
2020/12/12 08:28:39;;;;;;;16.97;8.80;;;2.50;99.90;;;;;;4367955;32;20203;-72
2020/12/12 08:31:13;;;;;;;17.20;8.43;;;2.50;99.90;;;;;;4382436;32;20183;-74
2020/12/12 08:33:40;;;;;;;15.43;8.57;;;2.50;99.90;;;;;;4385896;32;20217;-76
2020/12/12 08:36:16;;;;;;;16.53;8.73;;;2.50;99.90;;;;;;4382667;32;20171;-74
2020/12/12 08:38:52;;;;;;;16.00;8.73;;;2.60;99.90;;;;;;4379722;32;20159;-73
2020/12/12 08:41:19;;;;;;;15.33;8.50;;;2.60;99.90;;;;;;4381185;32;20163;-73
2020/12/12 08:43:46;;;;;;;14.07;8.03;;;2.50;99.90;;;;;;4380204;32;20172;-73
2020/12/12 08:46:16;;;;;;;14.77;8.43;;;2.60;99.90;;;;;;4382090;32;20165;-74
2020/12/12 08:48:44;;;;;;;15.77;8.53;;;2.60;99.90;;;;;;4380692;32;20191;-75
2020/12/12 08:51:11;;;;;;;15.57;8.73;;;2.50;99.90;;;;;;4380712;32;20222;-75
2020/12/12 08:53:42;;;;;;;13.57;8.23;;;2.60;99.90;;;;;;4381217;32;20435;-73
2020/12/12 08:56:28;;;;;;;13.70;7.83;;;2.50;99.90;;;;;;4382205;32;20152;-74
2020/12/12 08:59:06;;;;;;;15.97;8.30;;;2.50;99.90;;;;;;4382199;32;20221;-75
2020/12/12 09:01:42;;;;;;;16.03;8.93;;;2.50;99.90;;;;;;4380681;32;20202;-75
2020/12/12 09:04:31;;;;;;;14.30;8.50;;;2.50;99.90;;;;;;4381229;32;20474;-75
2020/12/12 09:06:57;;;;;;;14.70;8.03;;;2.60;99.90;;;;;;4382421;32;20190;-76
2020/12/12 09:09:30;;;;;;;13.90;7.63;;;2.50;99.90;;;;;;4380599;32;20541;-75
2020/12/12 09:12:01;;;;;;;16.73;8.50;;;2.50;99.90;;;;;;4379841;32;20159;-71
2020/12/12 09:14:30;;;;;;;14.87;8.20;;;2.50;99.90;;;;;;4373152;32;20407;-71
2020/12/12 09:16:59;;;;;;;15.77;8.83;;;2.50;99.90;;;;;;4373374;32;20178;-73
2020/12/12 09:19:26;;;;;;;14.20;7.67;;;2.50;99.90;;;;;;4371875;32;20200;-71
2020/12/12 09:21:53;;;;;;;15.03;8.33;;;2.60;99.90;;;;;;4375083;32;20144;-71
2020/12/12 09:24:22;;;;;;;15.00;8.23;;;2.60;99.90;;;;;;4380384;32;20437;-72
2020/12/12 09:26:50;;;;;;;16.00;8.93;;;2.60;99.90;;;;;;4380923;32;20416;-70
2020/12/12 09:29:17;;;;;;;14.03;8.53;;;2.60;99.90;;;;;;4380377;32;20189;-70
2020/12/12 09:31:44;;;;;;;16.77;8.87;;;2.60;99.90;;;;;;4381234;32;20259;-70
2020/12/12 09:34:11;;;;;;;13.70;8.47;;;2.70;99.90;;;;;;4380528;32;20140;-70
2020/12/12 09:36:37;;;;;;;16.60;8.90;;;2.70;99.90;;;;;;4380455;32;20148;-70
2020/12/12 09:39:04;;;;;;;14.70;8.17;;;2.70;99.90;;;;;;4377978;32;20277;-71
2020/12/12 09:41:31;;;;;;;14.53;8.30;;;2.80;99.90;;;;;;4369879;32;20212;-71
2020/12/12 09:43:57;;;;;;;14.57;8.23;;;2.80;99.90;;;;;;4372863;32;20494;-71
2020/12/12 09:46:24;;;;;;;13.53;8.37;;;2.80;99.90;;;;;;4374811;32;20151;-71
2020/12/12 09:48:51;;;;;;;14.53;8.80;;;2.70;99.90;;;;;;4380218;32;20178;-72
2020/12/12 09:51:18;;;;;;;15.37;8.60;;;2.70;99.90;;;;;;4369354;32;20152;-71
2020/12/12 09:53:45;;;;;;;15.40;8.90;;;2.70;99.90;;;;;;4381168;32;20171;-70
2020/12/12 09:56:15;;;;;;;16.30;8.80;;;2.70;99.90;;;;;;4372358;32;20148;-70
2020/12/12 09:58:43;;;;;;;13.53;8.33;;;2.70;99.90;;;;;;4376360;32;20191;-70
2020/12/12 10:01:13;;;;;;;15.83;8.77;;;2.70;99.90;;;;;;4379856;32;20239;-69
2020/12/12 10:03:40;;;;;;;16.67;8.50;;;2.60;99.90;;;;;;4378139;32;20160;-68
2020/12/12 10:06:07;;;;;;;15.40;8.67;;;2.60;99.90;;;;;;4374256;32;20190;-69
2020/12/12 10:08:34;;;;;;;14.40;8.53;;;2.60;99.90;;;;;;4379517;32;20403;-69
2020/12/12 10:11:01;;;;;;;16.57;9.57;;;2.70;99.90;;;;;;4366414;32;20554;-69
2020/12/12 10:13:27;;;;;;;15.27;9.17;;;2.70;99.90;;;;;;4376160;32;20239;-69
2020/12/12 10:15:54;;;;;;;14.93;8.70;;;2.70;99.90;;;;;;4371208;32;20178;-70
2020/12/12 10:18:20;;;;;;;14.73;9.07;;;2.80;99.90;;;;;;4379283;32;20171;-69
2020/12/12 10:20:47;;;;;;;14.40;8.70;;;2.90;99.90;;;;;;4366339;32;20524;-70
2020/12/12 10:23:13;;;;;;;16.97;9.20;;;2.80;99.90;;;;;;4377182;32;20140;-69
2020/12/12 10:25:40;;;;;;;17.03;9.60;;;2.80;99.90;;;;;;4369597;32;20187;-69
2020/12/12 10:28:09;;;;;;;16.30;8.80;;;2.70;99.90;;;;;;4378718;32;20203;-70
2020/12/12 10:30:36;;;;;;;15.63;9.20;;;2.80;99.90;;;;;;4369178;32;20204;-69
2020/12/12 10:33:03;;;;;;;15.77;9.17;;;2.70;99.90;;;;;;4363904;32;20202;-70
2020/12/12 10:35:30;;;;;;;18.27;9.60;;;2.80;99.90;;;;;;4368310;32;20178;-69
2020/12/12 10:37:58;;;;;;;15.83;9.30;;;2.70;99.90;;;;;;4379703;32;20155;-70
2020/12/12 10:40:33;;;;;;;15.10;9.20;;;2.80;99.90;;;;;;4368744;32;20160;-70
2020/12/12 10:43:01;;;;;;;17.73;9.23;;;2.80;99.90;;;;;;4388662;32;20214;-69
2020/12/12 10:45:27;;;;;;;16.87;9.50;;;2.90;99.90;;;;;;4380610;32;20160;-70
2020/12/12 10:47:54;;;;;;;16.97;9.43;;;3.00;99.90;;;;;;4370901;32;20174;-70
2020/12/12 10:50:22;;;;;;;15.13;9.03;;;3.00;99.90;;;;;;4378347;32;20198;-74
2020/12/12 10:52:50;;;;;;;16.13;9.20;;;3.00;99.90;;;;;;4366178;32;20172;-73
2020/12/12 10:55:19;;;;;;;17.67;9.83;;;3.10;99.90;;;;;;4369571;32;20231;-80
2020/12/12 10:57:45;;;;;;;15.80;9.43;;;3.10;99.90;;;;;;4370219;32;20231;-73
2020/12/12 11:00:12;;;;;;;16.77;9.93;;;3.10;99.90;;;;;;4378572;32;20167;-72
2020/12/12 11:02:39;;;;;;;14.63;8.53;;;3.00;99.90;;;;;;4367085;32;20156;-74
2020/12/12 11:05:06;;;;;;;14.90;8.63;;;2.90;99.90;;;;;;4375805;32;20225;-73
2020/12/12 11:07:49;;;;;;;14.37;8.43;;;2.90;99.90;;;;;;4370135;32;20217;-73
2020/12/12 11:10:15;;;;;;;15.10;8.63;;;2.90;99.90;;;;;;4369513;32;20262;-74
2020/12/12 11:12:44;;;;;;;14.27;8.57;;;2.90;99.90;;;;;;4375252;32;20441;-73
2020/12/12 11:15:11;;;;;;;15.40;8.53;;;2.90;99.90;;;;;;4366139;32;20202;-73
2020/12/12 11:17:41;;;;;;;14.77;8.53;;;2.80;99.90;;;;;;4378541;32;20182;-77
2020/12/12 11:20:09;;;;;;;15.87;9.40;;;2.90;99.90;;;;;;4370189;32;20156;-75
2020/12/12 11:22:35;;;;;;;16.63;8.70;;;2.90;99.90;;;;;;4374963;32;20217;-77
2020/12/12 11:25:03;;;;;;;14.33;8.77;;;3.00;99.90;;;;;;4366711;32;20164;-75
2020/12/12 11:27:29;;;;;;;14.03;9.00;;;3.00;99.90;;;;;;4374176;32;20195;-76
2020/12/12 11:29:56;;;;;;;15.90;8.97;;;3.00;99.90;;;;;;4371165;32;20618;-76
2020/12/12 11:32:22;;;;;;;14.20;8.70;;;3.00;99.90;;;;;;4383092;32;20190;-75
2020/12/12 11:34:57;;;;;;;12.77;8.17;;;3.10;99.90;;;;;;4369029;32;20170;-72
2020/12/12 11:40:18;;;;;;;14.37;8.63;;;3.10;99.90;;;;;;4376819;32;20152;-75
2020/12/12 11:48:04;;;;;;;14.80;9.20;;;3.10;99.90;;;;;;4385929;32;20182;-73
2020/12/12 11:50:30;;;;;;;15.23;9.13;;;3.10;99.90;;;;;;4394800;32;20559;-74
2020/12/12 11:52:57;;;;;;;16.37;9.67;;;3.00;99.90;;;;;;4394886;32;20163;-76
2020/12/12 11:55:24;;;;;;;19.03;9.67;;;3.00;99.90;;;;;;4395822;32;20189;-76
2020/12/12 11:57:51;;;;;;;14.93;9.07;;;3.00;99.90;;;;;;4395969;32;20147;-75
2020/12/12 12:00:18;;;;;;;14.73;9.23;;;3.10;99.90;;;;;;4397246;32;20222;-75
2020/12/12 12:02:44;;;;;;;14.07;9.00;;;3.10;99.90;;;;;;4395681;32;20403;-75
2020/12/12 12:05:11;;;;;;;15.37;9.33;;;3.10;99.90;;;;;;4396136;32;20249;-75
2020/12/12 12:07:47;;;;;;;16.23;9.30;;;3.10;99.90;;;;;;4395956;32;20460;-73
2020/12/12 12:12:47;;;;;;;15.27;8.97;;;3.20;99.90;;;;;;4396452;32;20230;-76
2020/12/12 12:15:14;;;;;;;15.20;8.70;;;3.10;99.90;;;;;;4396523;32;20594;-76
2020/12/12 12:17:40;;;;;;;16.87;9.60;;;3.00;99.90;;;;;;4396394;32;20170;-75
2020/12/12 12:20:08;;;;;;;16.03;9.60;;;3.10;99.90;;;;;;4395767;32;20147;-75
2020/12/12 12:22:35;;;;;;;15.03;9.27;;;3.20;99.90;;;;;;4396737;32;20223;-75
2020/12/12 12:25:01;;;;;;;16.17;10.17;;;3.10;99.90;;;;;;4396771;32;20438;-75
2020/12/12 12:27:27;;;;;;;16.67;9.10;;;3.10;99.90;;;;;;4396102;32;20410;-76
2020/12/12 12:29:54;;;;;;;16.23;9.40;;;3.00;99.90;;;;;;4395792;32;20147;-75
2020/12/12 12:32:20;;;;;;;16.33;9.97;;;3.00;99.90;;;;;;4396482;32;20152;-75
2020/12/12 12:34:47;;;;;;;14.37;8.73;;;3.10;99.90;;;;;;4396687;32;20193;-75
2020/12/12 12:37:14;;;;;;;17.27;9.37;;;3.00;99.90;;;;;;4397335;32;20187;-75
2020/12/12 12:39:40;;;;;;;17.87;9.80;;;3.00;99.90;;;;;;4397560;32;20517;-76
2020/12/12 12:42:07;;;;;;;18.90;9.77;;;3.00;99.90;;;;;;4395531;32;20183;-76
2020/12/12 12:44:34;;;;;;;16.13;9.60;;;3.10;99.90;;;;;;4397538;32;20143;-75
2020/12/12 12:47:00;;;;;;;14.80;9.30;;;3.00;99.90;;;;;;4397395;32;20139;-75
2020/12/12 12:49:27;;;;;;;17.30;9.83;;;3.00;99.90;;;;;;4396108;32;20528;-74
2020/12/12 12:51:53;;;;;;;17.20;10.10;;;3.10;99.90;;;;;;4395499;32;20147;-74
2020/12/12 12:54:20;;;;;;;16.30;9.37;;;3.20;99.90;;;;;;4394802;32;20490;-75
2020/12/12 12:56:47;;;;;;;16.80;9.87;;;3.20;99.90;;;;;;4395726;32;20186;-74
2020/12/12 12:59:13;;;;;;;18.23;9.63;;;3.20;99.90;;;;;;4395252;32;20160;-73